createdAt,value
2019-03-06T00:00:03.542Z,0.00
2019-03-06T00:01:03.520Z,0.00
2019-03-06T00:02:03.499Z,0.00
2019-03-06T00:03:03.584Z,0.00
2019-03-06T00:04:03.485Z,0.00
2019-03-06T00:05:03.475Z,0.00
2019-03-06T00:06:03.498Z,0.00
2019-03-06T00:07:03.453Z,0.00
2019-03-06T00:08:03.452Z,0.00
2019-03-06T00:09:03.612Z,0.00
2019-03-06T00:10:03.421Z,0.00
2019-03-06T00:11:03.409Z,0.00
2019-03-06T00:12:03.403Z,0.00
2019-03-06T00:13:03.384Z,0.00
2019-03-06T00:14:03.469Z,0.00
2019-03-06T00:15:03.369Z,0.00
2019-03-06T00:16:03.355Z,0.00
2019-03-06T00:17:03.343Z,0.00
2019-03-06T00:18:03.338Z,0.00
2019-03-06T00:19:03.344Z,0.00
2019-03-06T00:20:03.373Z,0.00
2019-03-06T00:21:03.309Z,0.00
2019-03-06T00:22:03.286Z,0.00
2019-03-06T00:23:03.272Z,0.00
2019-03-06T00:24:03.268Z,0.00
2019-03-06T00:25:03.305Z,0.00
2019-03-06T00:26:03.290Z,0.00
2019-03-06T00:27:03.229Z,0.00
2019-03-06T00:28:03.217Z,0.00
2019-03-06T00:29:03.204Z,0.00
2019-03-06T00:30:03.199Z,0.00
2019-03-06T00:31:03.255Z,0.00
2019-03-06T00:32:03.192Z,0.00
2019-03-06T00:33:03.169Z,0.00
2019-03-06T00:34:03.162Z,0.00
2019-03-06T00:35:03.146Z,0.00
2019-03-06T00:36:03.144Z,0.00
2019-03-06T00:37:03.167Z,0.00
2019-03-06T00:38:03.114Z,0.00
2019-03-06T00:39:03.108Z,0.00
2019-03-06T00:40:03.089Z,0.00
2019-03-06T00:41:03.087Z,0.00
2019-03-06T00:42:03.112Z,0.00
2019-03-06T00:43:03.070Z,0.00
2019-03-06T00:44:03.049Z,0.00
2019-03-06T00:45:03.039Z,0.00
2019-03-06T00:46:03.033Z,0.00
2019-03-06T00:47:03.059Z,0.00
2019-03-06T00:48:03.016Z,0.00
2019-03-06T00:49:02.990Z,0.00
2019-03-06T00:50:02.986Z,0.00
2019-03-06T00:51:02.983Z,0.00
2019-03-06T00:52:03.027Z,0.00
2019-03-06T00:53:02.952Z,0.00
2019-03-06T00:54:02.941Z,0.00
2019-03-06T00:55:02.967Z,0.00
2019-03-06T00:56:02.919Z,0.00
2019-03-06T00:57:02.902Z,0.00
2019-03-06T00:58:02.941Z,0.00
2019-03-06T00:59:02.878Z,0.00
2019-03-06T01:00:02.874Z,0.00
2019-03-06T01:01:02.865Z,0.00
2019-03-06T01:02:02.863Z,0.00
2019-03-06T01:03:02.894Z,0.00
2019-03-06T01:04:02.851Z,0.00
2019-03-06T01:05:02.816Z,0.00
2019-03-06T01:06:02.809Z,0.00
2019-03-06T01:07:02.840Z,0.00
2019-03-06T01:08:02.793Z,0.00
2019-03-06T01:09:02.814Z,0.00
2019-03-06T01:10:02.780Z,0.00
2019-03-06T01:11:02.768Z,0.00
2019-03-06T01:12:02.744Z,0.00
2019-03-06T01:13:02.726Z,0.00
2019-03-06T01:14:02.783Z,0.00
2019-03-06T01:15:02.720Z,0.00
2019-03-06T01:16:02.724Z,0.00
2019-03-06T01:17:02.687Z,0.00
2019-03-06T01:18:02.691Z,0.00
2019-03-06T01:19:02.726Z,0.00
2019-03-06T01:20:02.673Z,0.00
2019-03-06T01:21:02.639Z,0.00
2019-03-06T01:22:02.678Z,0.00
2019-03-06T01:23:02.627Z,0.00
2019-03-06T01:24:02.684Z,0.00
2019-03-06T01:25:02.599Z,0.00
2019-03-06T01:26:02.586Z,0.00
2019-03-06T01:27:02.576Z,0.00
2019-03-06T01:28:02.586Z,0.00
2019-03-06T01:29:02.601Z,0.00
2019-03-06T01:30:02.583Z,0.00
2019-03-06T01:31:02.545Z,0.00
2019-03-06T01:32:02.524Z,0.00
2019-03-06T01:33:02.553Z,0.00
2019-03-06T01:34:02.507Z,0.00
2019-03-06T01:35:02.539Z,0.00
2019-03-06T01:36:02.483Z,0.00
2019-03-06T01:37:02.475Z,0.00
2019-03-06T01:38:02.459Z,0.00
2019-03-06T01:39:02.448Z,0.00
2019-03-06T01:40:02.454Z,0.00
2019-03-06T01:41:02.473Z,0.00
2019-03-06T01:42:02.417Z,0.00
2019-03-06T01:43:02.413Z,0.00
2019-03-06T01:44:02.393Z,0.00
2019-03-06T01:45:02.383Z,0.00
2019-03-06T01:46:02.448Z,0.00
2019-03-06T01:47:02.371Z,0.00
2019-03-06T01:48:02.346Z,0.00
2019-03-06T01:49:02.342Z,0.00
2019-03-06T01:50:02.335Z,0.00
2019-03-06T01:51:02.374Z,0.00
2019-03-06T01:52:02.319Z,0.00
2019-03-06T01:53:02.293Z,0.00
2019-03-06T01:54:02.288Z,0.00
2019-03-06T01:55:02.311Z,0.00
2019-03-06T01:56:02.314Z,0.00
2019-03-06T01:57:02.265Z,0.00
2019-03-06T01:58:02.248Z,0.00
2019-03-06T01:59:02.235Z,0.00
2019-03-06T02:00:02.279Z,0.00
2019-03-06T02:01:02.216Z,0.00
2019-03-06T02:02:02.603Z,0.00
2019-03-06T02:03:02.186Z,0.00
2019-03-06T02:04:02.181Z,0.00
2019-03-06T02:05:03.231Z,0.00
2019-03-06T02:06:02.202Z,0.00
2019-03-06T02:07:02.159Z,0.00
2019-03-06T02:08:02.185Z,0.00
2019-03-06T02:09:02.167Z,0.00
2019-03-06T02:10:02.117Z,0.00
2019-03-06T02:11:02.108Z,0.00
2019-03-06T02:12:02.149Z,0.00
2019-03-06T02:13:02.134Z,0.00
2019-03-06T02:14:02.108Z,0.00
2019-03-06T02:15:02.094Z,0.00
2019-03-06T02:16:02.060Z,0.00
2019-03-06T02:17:02.043Z,0.00
2019-03-06T02:18:02.075Z,0.00
2019-03-06T02:19:02.088Z,0.00
2019-03-06T02:20:02.057Z,0.00
2019-03-06T02:21:02.034Z,0.00
2019-03-06T02:22:01.991Z,0.00
2019-03-06T02:23:02.008Z,0.00
2019-03-06T02:24:02.145Z,0.00
2019-03-06T02:25:02.085Z,0.00
2019-03-06T02:26:02.183Z,0.00
2019-03-06T02:27:02.035Z,0.00
2019-03-06T02:28:02.092Z,0.00
2019-03-06T02:29:02.026Z,0.00
2019-03-06T02:30:01.996Z,0.00
2019-03-06T02:31:01.894Z,0.00
2019-03-06T02:32:02.269Z,0.00
2019-03-06T02:33:01.962Z,0.00
2019-03-06T02:35:19.227Z,0.00
2019-03-06T02:36:17.631Z,0.00
2019-03-06T02:37:17.620Z,0.00
2019-03-06T02:38:18.595Z,0.00
2019-03-06T02:39:21.231Z,0.00
2019-03-06T02:40:18.623Z,0.00
2019-03-06T02:41:17.552Z,0.00
2019-03-06T02:42:17.549Z,0.00
2019-03-06T02:43:19.240Z,0.00
2019-03-06T02:44:17.559Z,0.00
2019-03-06T02:45:19.444Z,0.00
2019-03-06T02:46:17.566Z,0.00
2019-03-06T02:47:17.498Z,0.00
2019-03-06T02:48:17.552Z,0.00
2019-03-06T02:49:17.505Z,0.00
2019-03-06T02:50:17.510Z,0.00
2019-03-06T02:51:17.591Z,0.00
2019-03-06T02:52:17.466Z,0.00
2019-03-06T02:53:17.459Z,0.00
2019-03-06T02:54:17.433Z,0.00
2019-03-06T02:55:17.481Z,0.00
2019-03-06T02:56:17.406Z,0.00
2019-03-06T02:57:17.440Z,0.00
2019-03-06T02:58:17.377Z,0.00
2019-03-06T02:59:17.368Z,0.00
2019-03-06T03:00:17.456Z,0.00
2019-03-06T03:01:17.336Z,0.00
2019-03-06T03:02:17.330Z,0.00
2019-03-06T03:03:17.378Z,0.00
2019-03-06T03:04:17.319Z,0.00
2019-03-06T03:05:17.361Z,0.00
2019-03-06T03:06:17.323Z,0.00
2019-03-06T03:07:17.291Z,0.00
2019-03-06T03:08:17.258Z,0.00
2019-03-06T03:09:17.325Z,0.00
2019-03-06T03:10:17.247Z,0.00
2019-03-06T03:11:17.278Z,0.00
2019-03-06T03:12:17.216Z,0.00
2019-03-06T03:13:17.220Z,0.00
2019-03-06T03:14:17.199Z,0.00
2019-03-06T03:15:17.195Z,0.00
2019-03-06T03:16:17.955Z,0.00
2019-03-06T03:17:17.171Z,0.00
2019-03-06T03:18:17.159Z,0.00
2019-03-06T03:19:17.140Z,0.00
2019-03-06T03:20:17.132Z,0.00
2019-03-06T03:21:17.196Z,0.00
2019-03-06T03:22:17.111Z,0.00
2019-03-06T03:23:17.110Z,0.00
2019-03-06T03:24:17.095Z,0.00
2019-03-06T03:25:17.079Z,0.00
2019-03-06T03:26:17.069Z,0.00
2019-03-06T03:27:17.162Z,0.00
2019-03-06T03:28:19.727Z,0.00
2019-03-06T03:29:17.044Z,0.00
2019-03-06T03:30:17.036Z,0.00
2019-03-06T03:31:17.026Z,0.00
2019-03-06T03:32:17.070Z,0.00
2019-03-06T03:33:18.033Z,0.00
2019-03-06T03:34:22.770Z,0.00
2019-03-06T03:35:16.972Z,0.00
2019-03-06T03:36:16.963Z,0.00
2019-03-06T03:37:16.950Z,0.00
2019-03-06T03:38:16.992Z,0.00
2019-03-06T03:39:16.925Z,0.00
2019-03-06T03:40:16.989Z,0.00
2019-03-06T03:41:16.900Z,0.00
2019-03-06T03:42:16.933Z,0.00
2019-03-06T03:43:16.895Z,0.00
2019-03-06T03:44:16.941Z,0.00
2019-03-06T03:45:16.909Z,0.00
2019-03-06T03:46:16.849Z,0.00
2019-03-06T03:47:16.844Z,0.00
2019-03-06T03:48:16.888Z,0.00
2019-03-06T03:49:16.875Z,0.00
2019-03-06T03:50:16.805Z,0.00
2019-03-06T03:51:16.809Z,0.00
2019-03-06T03:52:16.790Z,0.00
2019-03-06T03:53:16.773Z,0.00
2019-03-06T03:54:16.821Z,0.00
2019-03-06T03:55:16.752Z,0.00
2019-03-06T03:56:16.805Z,0.00
2019-03-06T03:57:16.738Z,0.00
2019-03-06T03:58:16.721Z,0.00
2019-03-06T03:59:18.392Z,0.00
2019-03-06T04:00:16.702Z,0.00
2019-03-06T04:01:16.689Z,0.00
2019-03-06T04:02:16.681Z,0.00
2019-03-06T04:03:16.709Z,0.00
2019-03-06T04:04:16.707Z,0.00
2019-03-06T04:05:16.648Z,0.00
2019-03-06T04:06:16.636Z,0.00
2019-03-06T04:07:16.627Z,0.00
2019-03-06T04:08:16.623Z,0.00
2019-03-06T04:09:16.608Z,0.00
2019-03-06T04:10:16.673Z,0.00
2019-03-06T04:11:16.644Z,0.00
2019-03-06T04:12:16.570Z,0.00
2019-03-06T04:13:16.575Z,0.00
2019-03-06T04:14:16.569Z,0.00
2019-03-06T04:15:16.569Z,0.00
2019-03-06T04:16:16.569Z,0.00
2019-03-06T04:17:16.523Z,0.00
2019-03-06T04:18:16.508Z,0.00
2019-03-06T04:19:16.608Z,0.00
2019-03-06T04:20:16.507Z,0.00
2019-03-06T04:21:16.580Z,0.00
2019-03-06T04:22:16.462Z,0.00
2019-03-06T04:23:16.451Z,0.00
2019-03-06T04:24:16.437Z,0.00
2019-03-06T04:25:16.449Z,0.00
2019-03-06T04:26:16.460Z,0.00
2019-03-06T04:27:16.423Z,0.00
2019-03-06T04:28:16.407Z,0.00
2019-03-06T04:29:16.412Z,0.00
2019-03-06T04:30:16.416Z,0.00
2019-03-06T04:31:16.525Z,0.00
2019-03-06T04:32:16.373Z,0.00
2019-03-06T04:33:16.385Z,0.00
2019-03-06T04:34:16.344Z,0.00
2019-03-06T04:35:16.333Z,0.00
2019-03-06T04:36:16.366Z,0.00
2019-03-06T04:37:16.296Z,0.00
2019-03-06T04:38:16.293Z,0.00
2019-03-06T04:39:16.287Z,0.00
2019-03-06T04:40:16.303Z,0.00
2019-03-06T04:41:16.294Z,0.00
2019-03-06T04:42:16.347Z,0.00
2019-03-06T04:43:16.232Z,0.00
2019-03-06T04:44:16.218Z,0.00
2019-03-06T04:45:16.271Z,0.00
2019-03-06T04:46:16.292Z,0.00
2019-03-06T04:47:16.232Z,0.00
2019-03-06T04:48:16.175Z,0.00
2019-03-06T04:49:16.239Z,0.00
2019-03-06T04:50:16.181Z,0.00
2019-03-06T04:51:16.210Z,0.00
2019-03-06T04:52:16.139Z,0.00
2019-03-06T04:53:16.143Z,0.00
2019-03-06T04:54:16.119Z,0.00
2019-03-06T04:55:16.105Z,0.00
2019-03-06T04:56:16.173Z,0.00
2019-03-06T04:57:16.087Z,0.00
2019-03-06T04:58:16.099Z,0.00
2019-03-06T04:59:16.100Z,0.00
2019-03-06T05:00:16.070Z,0.00
2019-03-06T05:01:16.124Z,0.00
2019-03-06T05:02:16.053Z,0.00
2019-03-06T05:03:16.055Z,0.00
2019-03-06T05:04:17.004Z,0.00
2019-03-06T05:05:39.297Z,0.00
2019-03-06T05:06:17.203Z,0.00
2019-03-06T05:42:57.726Z,4.00
2019-03-06T05:44:24.873Z,4.00
2019-03-06T05:44:40.404Z,4.00
2019-03-06T06:56:23.812Z,2040.00
2019-03-06T06:57:11.775Z,2120.00
2019-03-06T07:03:36.561Z,2856.00
2019-03-06T07:04:37.427Z,2940.00
2019-03-06T07:05:36.506Z,3004.00
2019-03-06T07:06:36.489Z,3064.00
2019-03-06T07:07:36.496Z,3116.00
2019-03-06T07:08:36.486Z,3176.00
2019-03-06T07:09:36.643Z,3236.00
2019-03-06T07:10:36.455Z,3284.00
2019-03-06T07:11:36.442Z,3348.00
2019-03-06T07:12:36.525Z,3388.00
2019-03-06T07:13:36.432Z,3432.00
2019-03-06T07:14:36.405Z,3476.00
2019-03-06T07:15:36.449Z,3508.00
2019-03-06T07:16:36.409Z,3524.00
2019-03-06T07:17:37.411Z,3516.00
2019-03-06T07:18:36.396Z,3500.00
2019-03-06T07:19:36.382Z,3484.00
2019-03-06T07:20:36.412Z,3472.00
2019-03-06T07:21:36.493Z,3480.00
2019-03-06T07:22:36.352Z,3496.00
2019-03-06T07:23:36.319Z,3540.00
2019-03-06T07:24:36.294Z,3580.00
2019-03-06T07:25:37.926Z,3644.00
2019-03-06T07:26:36.281Z,3712.00
2019-03-06T07:27:36.272Z,3788.00
2019-03-06T07:28:36.246Z,3848.00
2019-03-06T07:29:36.270Z,3904.00
2019-03-06T07:30:36.306Z,3940.00
2019-03-06T07:31:36.257Z,3960.00
2019-03-06T07:32:37.874Z,3948.00
2019-03-06T07:33:36.195Z,3956.00
2019-03-06T07:34:36.253Z,3984.00
2019-03-06T07:35:36.173Z,4040.00
2019-03-06T07:36:36.206Z,4108.00
2019-03-06T07:37:36.191Z,4240.00
2019-03-06T07:38:36.138Z,4388.00
2019-03-06T07:39:36.215Z,4552.00
2019-03-06T07:40:36.136Z,4652.00
2019-03-06T07:41:36.180Z,4724.00
2019-03-06T07:42:36.193Z,4712.00
2019-03-06T07:43:36.098Z,4660.00
2019-03-06T07:44:36.089Z,4592.00
2019-03-06T07:45:36.169Z,4548.00
2019-03-06T07:46:36.053Z,4524.00
2019-03-06T07:47:38.434Z,4492.00
2019-03-06T07:48:36.035Z,4456.00
2019-03-06T07:49:44.712Z,4372.00
2019-03-06T07:50:37.071Z,4284.00
2019-03-06T07:51:36.001Z,4200.00
2019-03-06T07:52:35.989Z,4212.00
2019-03-06T07:53:36.061Z,4216.00
2019-03-06T07:54:38.900Z,4252.00
2019-03-06T07:55:35.966Z,4380.00
2019-03-06T07:56:36.003Z,4472.00
2019-03-06T07:57:36.022Z,4800.00
2019-03-06T07:58:39.981Z,5236.00
2019-03-06T07:59:35.958Z,5752.00
2019-03-06T08:00:35.904Z,6264.00
2019-03-06T08:01:35.900Z,6812.00
2019-03-06T08:02:35.969Z,7284.00
2019-03-06T08:03:35.874Z,7672.00
2019-03-06T08:04:35.902Z,8028.00
2019-03-06T08:05:35.873Z,8324.00
2019-03-06T08:06:35.843Z,8524.00
2019-03-06T08:07:35.823Z,8616.00
2019-03-06T08:08:35.961Z,8568.00
2019-03-06T08:09:36.468Z,8452.00
2019-03-06T08:10:35.797Z,8240.00
2019-03-06T08:11:35.783Z,8044.00
2019-03-06T08:12:35.764Z,7888.00
2019-03-06T08:13:35.769Z,7840.00
2019-03-06T08:14:35.796Z,7792.00
2019-03-06T08:15:35.753Z,7760.00
2019-03-06T08:16:35.783Z,7712.00
2019-03-06T08:17:35.775Z,7668.00
2019-03-06T08:18:35.700Z,7548.00
2019-03-06T08:19:35.734Z,7404.00
2019-03-06T08:20:35.743Z,7264.00
2019-03-06T08:21:35.883Z,7144.00
2019-03-06T08:22:35.691Z,6984.00
2019-03-06T08:23:35.639Z,6932.00
2019-03-06T08:24:35.629Z,6932.00
2019-03-06T08:25:37.450Z,7008.00
2019-03-06T08:26:35.675Z,7188.00
2019-03-06T08:27:35.606Z,7400.00
2019-03-06T08:28:35.605Z,7472.00
2019-03-06T08:29:35.648Z,7532.00
2019-03-06T08:30:35.772Z,7536.00
2019-03-06T08:31:36.453Z,7444.00
2019-03-06T08:32:35.577Z,7316.00
2019-03-06T08:33:35.555Z,7232.00
2019-03-06T08:34:35.635Z,7220.00
2019-03-06T08:35:39.531Z,7220.00
2019-03-06T08:36:36.392Z,7220.00
2019-03-06T08:37:35.498Z,7232.00
2019-03-06T08:38:35.789Z,7240.00
2019-03-06T08:39:35.467Z,7384.00
2019-03-06T08:40:36.583Z,7684.00
2019-03-06T08:41:35.470Z,8128.00
2019-03-06T08:42:35.472Z,8664.00
2019-03-06T08:43:35.521Z,9292.00
2019-03-06T08:44:35.572Z,9912.00
2019-03-06T08:45:36.955Z,10504.00
2019-03-06T08:46:35.710Z,10936.00
2019-03-06T08:47:35.398Z,11272.00
2019-03-06T08:48:35.389Z,11568.00
2019-03-06T08:49:36.380Z,11828.00
2019-03-06T08:50:35.962Z,12028.00
2019-03-06T08:51:35.684Z,12040.00
2019-03-06T08:52:35.497Z,12204.00
2019-03-06T08:53:39.034Z,12396.00
2019-03-06T08:54:35.309Z,12500.00
2019-03-06T08:55:37.933Z,12464.00
2019-03-06T08:56:35.358Z,12360.00
2019-03-06T08:57:35.735Z,12188.00
2019-03-06T08:58:35.328Z,12032.00
2019-03-06T08:59:35.283Z,11916.00
2019-03-06T09:00:36.968Z,11824.00
2019-03-06T09:01:35.279Z,11876.00
2019-03-06T09:02:36.080Z,11992.00
2019-03-06T09:03:35.298Z,12188.00
2019-03-06T09:04:35.401Z,12348.00
2019-03-06T09:05:35.217Z,12476.00
2019-03-06T09:06:37.572Z,12428.00
2019-03-06T09:07:36.932Z,12480.00
2019-03-06T09:08:35.207Z,12568.00
2019-03-06T09:09:39.229Z,12672.00
2019-03-06T09:10:36.165Z,12816.00
2019-03-06T09:11:39.573Z,12968.00
2019-03-06T09:12:35.203Z,13124.00
2019-03-06T09:13:35.200Z,13388.00
2019-03-06T09:14:35.620Z,13676.00
2019-03-06T09:15:35.162Z,14020.00
2019-03-06T09:16:35.301Z,14352.00
2019-03-06T09:17:35.180Z,14636.00
2019-03-06T09:18:35.190Z,14968.00
2019-03-06T09:19:35.081Z,15196.00
2019-03-06T09:20:38.403Z,15628.00
2019-03-06T09:21:36.074Z,16128.00
2019-03-06T09:22:35.011Z,16616.00
2019-03-06T09:23:35.053Z,16800.00
2019-03-06T09:24:34.992Z,16472.00
2019-03-06T09:25:34.952Z,16108.00
2019-03-06T09:26:35.005Z,15880.00
2019-03-06T09:27:34.935Z,15856.00
2019-03-06T09:28:35.085Z,16016.00
2019-03-06T09:29:35.039Z,16456.00
2019-03-06T09:30:35.108Z,17312.00
2019-03-06T09:32:44.290Z,18112.00
2019-03-06T09:33:44.235Z,18560.00
2019-03-06T09:34:44.246Z,18432.00
2019-03-06T09:35:44.217Z,18048.00
2019-03-06T09:36:44.295Z,17824.00
2019-03-06T09:37:44.191Z,17664.00
2019-03-06T09:38:44.277Z,16592.00
2019-03-06T09:39:44.252Z,15748.00
2019-03-06T09:40:44.329Z,15652.00
2019-03-06T09:41:44.147Z,15244.00
2019-03-06T09:42:44.184Z,15016.00
2019-03-06T09:43:44.349Z,14448.00
2019-03-06T09:44:44.115Z,13772.00
2019-03-06T09:45:44.193Z,13332.00
2019-03-06T09:46:44.104Z,13528.00
2019-03-06T09:47:44.147Z,14188.00
2019-03-06T09:48:44.081Z,15484.00
2019-03-06T09:49:44.096Z,17312.00
2019-03-06T09:50:44.019Z,19072.00
2019-03-06T09:51:44.072Z,20640.00
2019-03-06T09:52:44.013Z,23392.00
2019-03-06T09:53:44.021Z,20416.00
2019-03-06T09:54:44.000Z,19200.00
2019-03-06T09:55:44.031Z,18752.00
2019-03-06T09:56:43.948Z,18336.00
2019-03-06T09:57:44.002Z,18432.00
2019-03-06T09:58:44.025Z,19168.00
2019-03-06T09:59:43.928Z,19968.00
2019-03-06T10:00:43.900Z,21056.00
2019-03-06T10:01:43.901Z,22400.00
2019-03-06T10:02:43.886Z,23872.00
2019-03-06T10:03:43.907Z,24704.00
2019-03-06T10:04:43.895Z,25984.00
2019-03-06T10:05:43.850Z,26784.00
2019-03-06T10:06:43.836Z,28064.00
2019-03-06T10:07:43.824Z,28832.00
2019-03-06T10:08:43.891Z,31424.00
2019-03-06T10:09:43.814Z,34304.00
2019-03-06T10:10:47.774Z,34688.00
2019-03-06T10:11:44.773Z,33472.00
2019-03-06T10:12:47.501Z,32672.00
2019-03-06T10:13:43.783Z,31232.00
2019-03-06T10:14:43.798Z,28544.00
2019-03-06T10:15:43.749Z,26560.00
2019-03-06T10:16:48.862Z,25440.00
2019-03-06T10:17:44.725Z,24608.00
2019-03-06T10:18:43.726Z,23968.00
2019-03-06T10:19:43.783Z,23072.00
2019-03-06T10:20:43.682Z,21408.00
2019-03-06T10:21:43.677Z,19392.00
2019-03-06T10:22:43.655Z,17696.00
2019-03-06T10:23:43.656Z,16488.00
2019-03-06T10:24:43.686Z,15500.00
2019-03-06T10:25:43.633Z,15096.00
2019-03-06T10:26:43.623Z,15208.00
2019-03-06T10:27:43.601Z,16236.00
2019-03-06T10:28:43.650Z,16524.00
2019-03-06T10:29:43.633Z,15952.00
2019-03-06T10:30:43.599Z,14904.00
2019-03-06T10:31:43.562Z,13240.00
2019-03-06T10:32:43.555Z,11924.00
2019-03-06T10:33:43.644Z,11108.00
2019-03-06T10:34:43.535Z,10836.00
2019-03-06T10:35:43.569Z,10852.00
2019-03-06T10:36:43.565Z,11112.00
2019-03-06T10:37:43.496Z,11356.00
2019-03-06T10:38:43.495Z,12028.00
2019-03-06T10:39:43.483Z,13140.00
2019-03-06T10:40:43.496Z,14912.00
2019-03-06T10:41:43.445Z,16708.00
2019-03-06T10:42:43.442Z,18016.00
2019-03-06T10:44:44.486Z,19936.00
2019-03-06T10:45:44.009Z,20672.00
2019-03-06T10:46:43.436Z,20960.00
2019-03-06T10:47:43.385Z,21152.00
2019-03-06T10:48:43.414Z,21184.00
2019-03-06T10:49:43.409Z,20384.00
2019-03-06T10:50:43.980Z,20832.00
2019-03-06T10:51:43.360Z,22784.00
2019-03-06T10:52:43.323Z,25728.00
2019-03-06T10:53:43.372Z,26400.00
2019-03-06T10:54:44.767Z,26432.00
2019-03-06T10:55:46.975Z,26528.00
2019-03-06T10:56:43.292Z,30912.00
2019-03-06T10:57:43.276Z,28896.00
2019-03-06T10:58:43.271Z,30656.00
2019-03-06T10:59:43.257Z,32512.00
2019-03-06T11:00:43.301Z,38752.00
2019-03-06T11:01:43.255Z,34624.00
2019-03-06T11:02:43.236Z,34592.00
2019-03-06T11:03:43.229Z,36800.00
2019-03-06T11:04:43.193Z,35872.00
2019-03-06T11:05:43.275Z,34208.00
2019-03-06T11:06:43.177Z,32608.00
2019-03-06T11:07:43.212Z,37184.00
2019-03-06T11:08:43.166Z,31200.00
2019-03-06T11:09:43.205Z,30368.00
2019-03-06T11:10:50.846Z,31872.00
2019-03-06T11:11:43.164Z,32288.00
2019-03-06T11:12:43.113Z,32000.00
2019-03-06T11:13:43.121Z,31712.00
2019-03-06T11:14:44.588Z,33856.00
2019-03-06T11:15:43.121Z,35392.00
2019-03-06T11:16:43.147Z,44064.00
2019-03-06T11:17:43.057Z,46560.00
2019-03-06T11:18:43.062Z,53952.00
2019-03-06T11:19:43.041Z,59424.00
2019-03-06T11:20:43.032Z,62048.00
2019-03-06T11:21:43.079Z,63328.00
2019-03-06T11:22:43.009Z,63584.00
2019-03-06T11:23:42.992Z,65024.00
2019-03-06T11:24:42.976Z,69312.00
2019-03-06T11:25:42.963Z,68384.00
2019-03-06T11:26:43.023Z,57632.00
2019-03-06T11:27:42.944Z,36320.00
2019-03-06T11:28:42.980Z,32448.00
2019-03-06T11:29:42.931Z,31520.00
2019-03-06T11:30:42.914Z,30368.00
2019-03-06T11:31:43.128Z,29248.00
2019-03-06T11:32:42.933Z,27744.00
2019-03-06T11:33:42.889Z,25824.00
2019-03-06T11:34:42.902Z,24192.00
2019-03-06T11:35:42.851Z,23296.00
2019-03-06T11:36:42.926Z,23776.00
2019-03-06T11:37:42.888Z,27360.00
2019-03-06T11:38:44.317Z,35232.00
2019-03-06T11:39:42.818Z,32384.00
2019-03-06T11:40:42.916Z,25152.00
2019-03-06T11:41:42.794Z,20896.00
2019-03-06T11:42:42.773Z,19520.00
2019-03-06T11:43:43.522Z,18912.00
2019-03-06T11:44:42.765Z,18176.00
2019-03-06T11:45:42.784Z,18912.00
2019-03-06T11:46:42.761Z,19296.00
2019-03-06T11:47:42.746Z,18880.00
2019-03-06T11:48:45.868Z,18624.00
2019-03-06T11:49:42.743Z,18560.00
2019-03-06T11:50:42.749Z,18240.00
2019-03-06T11:51:42.716Z,17792.00
2019-03-06T11:52:42.721Z,16624.00
2019-03-06T11:53:42.697Z,14904.00
2019-03-06T11:54:42.664Z,12932.00
2019-03-06T11:55:42.633Z,12264.00
2019-03-06T11:56:42.665Z,12528.00
2019-03-06T11:57:42.685Z,14120.00
2019-03-06T11:58:44.479Z,17600.00
2019-03-06T11:59:42.599Z,19072.00
2019-03-06T12:00:42.586Z,18144.00
2019-03-06T12:01:47.915Z,16880.00
2019-03-06T12:02:43.588Z,16736.00
2019-03-06T12:03:42.697Z,17632.00
2019-03-06T12:04:42.540Z,18400.00
2019-03-06T12:05:42.532Z,18784.00
2019-03-06T12:06:42.546Z,19456.00
2019-03-06T12:07:42.504Z,20384.00
2019-03-06T12:08:45.758Z,20736.00
2019-03-06T12:09:42.541Z,20544.00
2019-03-06T12:10:42.477Z,19840.00
2019-03-06T12:11:42.469Z,19040.00
2019-03-06T12:12:42.464Z,18208.00
2019-03-06T12:13:42.480Z,17312.00
2019-03-06T12:14:42.459Z,16372.00
2019-03-06T12:15:42.413Z,15920.00
2019-03-06T12:16:42.464Z,15940.00
2019-03-06T12:17:42.440Z,16248.00
2019-03-06T12:18:42.609Z,16960.00
2019-03-06T12:19:42.372Z,17632.00
2019-03-06T12:20:42.369Z,18304.00
2019-03-06T12:21:42.349Z,18944.00
2019-03-06T12:22:42.387Z,19264.00
2019-03-06T12:23:42.327Z,19520.00
2019-03-06T12:24:42.994Z,20384.00
2019-03-06T12:25:42.357Z,22144.00
2019-03-06T12:26:42.334Z,23936.00
2019-03-06T12:27:42.289Z,25600.00
2019-03-06T12:28:42.278Z,26720.00
2019-03-06T12:29:43.995Z,27616.00
2019-03-06T12:30:42.254Z,27520.00
2019-03-06T12:31:42.252Z,27328.00
2019-03-06T12:32:42.235Z,26848.00
2019-03-06T12:33:42.262Z,26144.00
2019-03-06T12:34:42.263Z,25280.00
2019-03-06T12:35:42.189Z,25024.00
2019-03-06T12:36:42.181Z,25088.00
2019-03-06T12:37:46.939Z,25088.00
2019-03-06T12:38:43.155Z,25472.00
2019-03-06T12:39:42.259Z,26496.00
2019-03-06T12:40:42.170Z,27552.00
2019-03-06T12:41:42.180Z,28160.00
2019-03-06T12:42:42.117Z,28960.00
2019-03-06T12:43:42.139Z,30560.00
2019-03-06T12:44:42.171Z,31968.00
2019-03-06T12:45:42.138Z,31040.00
2019-03-06T12:46:42.084Z,27744.00
2019-03-06T12:47:42.064Z,24768.00
2019-03-06T12:48:42.144Z,22464.00
2019-03-06T12:49:42.994Z,21696.00
2019-03-06T12:50:42.055Z,21408.00
2019-03-06T12:51:42.040Z,20576.00
2019-03-06T12:52:42.017Z,19520.00
2019-03-06T12:53:41.999Z,18624.00
2019-03-06T12:54:41.996Z,17920.00
2019-03-06T12:55:43.994Z,17344.00
2019-03-06T12:56:41.989Z,16520.00
2019-03-06T12:57:41.958Z,15584.00
2019-03-06T12:58:41.956Z,15064.00
2019-03-06T12:59:41.936Z,14988.00
2019-03-06T13:00:42.519Z,15124.00
2019-03-06T13:01:41.916Z,14960.00
2019-03-06T13:02:41.938Z,14584.00
2019-03-06T13:03:41.886Z,14544.00
2019-03-06T13:04:41.884Z,14500.00
2019-03-06T13:05:41.925Z,14392.00
2019-03-06T13:06:41.859Z,14152.00
2019-03-06T13:07:41.841Z,13804.00
2019-03-06T13:08:49.917Z,13520.00
2019-03-06T13:09:42.830Z,13344.00
2019-03-06T13:10:41.809Z,13184.00
2019-03-06T13:11:41.932Z,13020.00
2019-03-06T13:12:41.984Z,12660.00
2019-03-06T13:13:41.836Z,12204.00
2019-03-06T13:14:41.783Z,11508.00
2019-03-06T13:15:42.082Z,10708.00
2019-03-06T13:16:46.574Z,9884.00
2019-03-06T13:17:41.964Z,9112.00
2019-03-06T13:18:41.783Z,8264.00
2019-03-06T13:19:42.027Z,7636.00
2019-03-06T13:20:41.759Z,7544.00
2019-03-06T13:22:11.400Z,7288.00
2019-03-06T13:22:42.704Z,7736.00
2019-03-06T13:23:41.725Z,7920.00
2019-03-06T13:24:41.914Z,8100.00
2019-03-06T13:25:41.702Z,8628.00
2019-03-06T13:26:42.531Z,8948.00
2019-03-06T13:27:41.866Z,9528.00
2019-03-06T13:28:41.735Z,9656.00
2019-03-06T13:29:41.838Z,10260.00
2019-03-06T13:30:41.699Z,10244.00
2019-03-06T13:31:42.582Z,9968.00
2019-03-06T13:32:41.961Z,9692.00
2019-03-06T13:33:41.589Z,10008.00
2019-03-06T13:34:50.701Z,10336.00
2019-03-06T13:35:42.583Z,10612.00
2019-03-06T13:36:41.980Z,10800.00
2019-03-06T13:38:54.964Z,10660.00
2019-03-06T13:39:50.382Z,10568.00
2019-03-06T13:40:50.343Z,10436.00
2019-03-06T13:41:51.010Z,10136.00
2019-03-06T13:42:52.066Z,10280.00
2019-03-06T13:43:50.414Z,10012.00
2019-03-06T13:44:50.284Z,10084.00
2019-03-06T13:45:50.420Z,9800.00
2019-03-06T13:46:50.384Z,9296.00
2019-03-06T13:47:55.552Z,9248.00
2019-03-06T13:48:50.570Z,9512.00
2019-03-06T13:49:50.245Z,10216.00
2019-03-06T13:50:50.216Z,10920.00
2019-03-06T13:51:50.204Z,11248.00
2019-03-06T13:52:50.198Z,11480.00
2019-03-06T13:53:50.243Z,11264.00
2019-03-06T13:54:50.220Z,10984.00
2019-03-06T13:55:50.170Z,10004.00
2019-03-06T13:56:51.811Z,8948.00
2019-03-06T13:57:51.320Z,8152.00
2019-03-06T13:58:52.016Z,7848.00
2019-03-06T13:59:50.111Z,7308.00
2019-03-06T14:00:50.125Z,6544.00
2019-03-06T14:01:50.106Z,5988.00
2019-03-06T14:02:50.144Z,5784.00
2019-03-06T14:03:50.135Z,5816.00
2019-03-06T14:04:50.127Z,5944.00
2019-03-06T14:05:50.228Z,6056.00
2019-03-06T14:06:50.120Z,6012.00
2019-03-06T14:07:56.475Z,5908.00
2019-03-06T14:08:52.194Z,5852.00
2019-03-06T14:09:51.029Z,5524.00
2019-03-06T14:10:50.151Z,4968.00
2019-03-06T14:11:50.023Z,4556.00
2019-03-06T14:12:50.055Z,4332.00
2019-03-06T14:13:51.189Z,4472.00
2019-03-06T14:14:51.540Z,4812.00
2019-03-06T14:15:53.983Z,5152.00
2019-03-06T14:16:50.280Z,5528.00
2019-03-06T14:17:49.992Z,5788.00
2019-03-06T14:18:49.986Z,6216.00
2019-03-06T14:19:50.058Z,6824.00
2019-03-06T14:20:50.102Z,7184.00